createdAt,value
2023-01-02T00:01:43.840Z,60.30
2023-01-02T00:07:47.086Z,63.40
2023-01-02T00:10:52.624Z,63.30
2023-01-02T00:13:54.580Z,59.90
2023-01-02T00:16:56.146Z,59.60
2023-01-02T00:19:57.713Z,63.50
2023-01-02T00:22:59.261Z,61.80
2023-01-02T00:26:01.015Z,63.10
2023-01-02T00:32:04.816Z,63.80
2023-01-02T00:35:07.067Z,64.70
2023-01-02T00:38:08.860Z,64.90
2023-01-02T00:44:12.098Z,60.70
2023-01-02T00:47:13.652Z,69.40
2023-01-02T00:50:15.322Z,71.40
2023-01-02T00:53:17.045Z,64.10
2023-01-02T00:56:18.682Z,55.50
2023-01-02T00:59:20.436Z,54.70
2023-01-02T01:02:22.065Z,53.60
2023-01-02T01:05:27.678Z,51.40
2023-01-02T01:08:29.301Z,52.10
2023-01-02T01:11:30.885Z,60.00
2023-01-02T01:14:32.677Z,60.70
2023-01-02T01:17:34.429Z,57.80
2023-01-02T01:20:39.641Z,60.00
2023-01-02T01:23:41.509Z,56.20
2023-01-02T01:26:43.192Z,61.40
2023-01-02T01:32:46.496Z,56.00
2023-01-02T01:35:48.453Z,48.40
2023-01-02T01:38:50.519Z,56.00
2023-01-02T01:41:52.279Z,56.50
2023-01-02T01:47:59.780Z,56.50
2023-01-02T01:51:04.717Z,60.80
2023-01-02T01:54:09.862Z,61.30
2023-01-02T01:57:20.832Z,63.60
2023-01-02T02:00:23.008Z,63.60
2023-01-02T02:03:27.390Z,68.40
2023-01-02T02:06:29.223Z,77.10
2023-01-02T02:09:39.204Z,69.50
2023-01-02T02:12:40.916Z,67.70
2023-01-02T02:16:12.302Z,63.80
2023-01-02T02:19:45.359Z,65.00
2023-01-02T02:23:06.332Z,73.60
2023-01-02T02:26:29.830Z,76.20
2023-01-02T02:29:54.339Z,58.50
2023-01-02T02:33:27.172Z,66.90
2023-01-02T02:36:41.961Z,60.30
2023-01-02T02:40:13.219Z,53.30
2023-01-02T02:43:47.610Z,62.30
2023-01-02T02:47:09.218Z,56.80
2023-01-02T02:50:32.205Z,53.60
2023-01-02T02:53:45.870Z,55.00
2023-01-02T02:56:48.326Z,60.00
2023-01-02T02:59:49.893Z,60.10
2023-01-02T03:02:51.804Z,63.50
2023-01-02T03:06:13.812Z,61.00
2023-01-02T03:09:29.222Z,59.70
2023-01-02T03:12:48.089Z,60.20
2023-01-02T03:16:14.854Z,61.70
2023-01-02T03:19:43.169Z,56.80
2023-01-02T03:22:48.883Z,56.60
2023-01-02T03:25:50.989Z,60.20
2023-01-02T03:28:59.200Z,56.90
2023-01-02T03:32:01.765Z,61.20
2023-01-02T03:35:08.886Z,58.80
2023-01-02T03:38:15.447Z,56.10
2023-01-02T03:41:31.636Z,63.50
2023-01-02T03:45:12.325Z,59.80
2023-01-02T03:48:18.428Z,59.70
2023-01-02T03:51:20.189Z,64.10
2023-01-02T03:57:33.382Z,63.00
2023-01-02T04:00:52.194Z,64.60
2023-01-02T04:04:08.143Z,64.80
2023-01-02T04:07:17.643Z,64.30
2023-01-02T04:10:19.491Z,62.10
2023-01-02T04:16:26.171Z,63.30
2023-01-02T04:19:33.396Z,61.50
2023-01-02T04:22:39.681Z,58.80
2023-01-02T04:25:54.989Z,61.90
2023-01-02T04:28:56.707Z,69.70
2023-01-02T04:32:15.143Z,64.80
2023-01-02T04:35:21.670Z,73.10
2023-01-02T04:38:23.168Z,66.20
2023-01-02T04:41:26.397Z,60.00
2023-01-02T04:44:27.971Z,53.20
2023-01-02T04:47:29.493Z,51.40
2023-01-02T04:50:31.059Z,54.90
2023-01-02T04:53:32.811Z,59.00
2023-01-02T04:56:34.423Z,61.30
2023-01-02T04:59:36.017Z,58.00
2023-01-02T05:02:38.662Z,59.50
2023-01-02T05:05:40.616Z,60.30
2023-01-02T05:08:42.374Z,62.10
2023-01-02T05:14:45.524Z,69.00
2023-01-02T05:17:47.138Z,70.90
2023-01-02T05:20:49.032Z,75.70
2023-01-02T05:26:52.451Z,69.80
2023-01-02T05:29:54.050Z,72.70
2023-01-02T05:32:55.866Z,74.50
2023-01-02T05:38:58.984Z,73.30
2023-01-02T05:42:00.595Z,72.10
2023-01-02T05:45:02.170Z,66.70
2023-01-02T05:48:03.875Z,75.70
2023-01-02T05:51:07.014Z,75.90
2023-01-02T05:54:08.595Z,83.60
2023-01-02T05:57:10.121Z,73.20
2023-01-02T06:00:12.360Z,75.60
2023-01-02T06:03:13.964Z,75.80
2023-01-02T06:06:17.303Z,85.10
2023-01-02T06:09:18.870Z,87.70
2023-01-02T06:15:22.343Z,73.40
2023-01-02T06:21:25.982Z,78.50
2023-01-02T06:24:27.828Z,78.40
2023-01-02T06:27:32.048Z,80.90
2023-01-02T06:30:33.665Z,82.70
2023-01-02T06:33:35.845Z,81.20
2023-01-02T06:36:37.469Z,87.30
2023-01-02T06:39:39.215Z,87.30
2023-01-02T06:42:43.421Z,82.10
2023-01-02T06:45:45.278Z,82.50
2023-01-02T06:48:47.220Z,78.90
2023-01-02T06:51:48.793Z,60.30
2023-01-02T06:54:50.364Z,71.80
2023-01-02T06:57:51.905Z,78.60
2023-01-02T07:00:53.812Z,62.90
2023-01-02T07:03:55.604Z,68.60
2023-01-02T07:09:58.610Z,65.90
2023-01-02T07:13:00.449Z,78.80
2023-01-02T07:19:07.398Z,61.50
2023-01-02T07:22:10.669Z,58.90
2023-01-02T07:25:12.301Z,66.60
2023-01-02T07:28:13.905Z,57.10
2023-01-02T07:31:17.881Z,57.80
2023-01-02T07:34:19.639Z,55.40
2023-01-02T07:37:21.940Z,47.00
2023-01-02T07:40:27.300Z,42.40
2023-01-02T07:43:33.615Z,42.20
2023-01-02T07:46:35.392Z,48.70
2023-01-02T07:49:37.461Z,53.80
2023-01-02T07:52:39.083Z,49.30
2023-01-02T07:55:40.796Z,55.10
2023-01-02T07:58:42.524Z,52.60
2023-01-02T08:01:44.366Z,49.70
2023-01-02T08:04:46.041Z,53.80
2023-01-02T08:10:49.307Z,59.40
2023-01-02T08:13:50.865Z,64.40
2023-01-02T08:16:52.585Z,70.80
2023-01-02T08:19:54.122Z,105.50
2023-01-02T08:22:56.236Z,99.80
2023-01-02T08:26:02.541Z,109.00
2023-01-02T08:29:04.180Z,85.20
2023-01-02T08:35:07.952Z,82.60
2023-01-02T08:38:09.643Z,61.90
2023-01-02T08:44:12.912Z,66.20
2023-01-02T08:50:16.220Z,59.80
2023-01-02T08:53:18.356Z,63.80
2023-01-02T08:56:20.081Z,57.80
2023-01-02T08:59:24.116Z,62.50
2023-01-02T09:02:26.062Z,60.40
2023-01-02T09:05:28.089Z,58.10
2023-01-02T09:08:29.807Z,59.90
2023-01-02T09:11:35.338Z,57.50
2023-01-02T09:14:37.477Z,56.00
2023-01-02T09:17:39.026Z,58.80
2023-01-02T09:20:40.921Z,57.80
2023-01-02T09:23:42.645Z,57.00
2023-01-02T09:26:44.507Z,64.80
2023-01-02T09:29:46.097Z,71.50
2023-01-02T09:32:47.753Z,62.30
2023-01-02T09:35:49.720Z,64.80
2023-01-02T09:38:53.000Z,65.50
2023-01-02T09:41:56.732Z,65.00
2023-01-02T09:45:08.601Z,62.50
2023-01-02T09:48:17.216Z,61.40
2023-01-02T09:51:19.026Z,67.90
2023-01-02T09:54:27.610Z,65.20
2023-01-02T09:57:29.303Z,68.60
2023-01-02T10:00:33.059Z,63.30
2023-01-02T10:04:00.124Z,64.20
2023-01-02T10:07:15.668Z,61.40
2023-01-02T10:10:49.746Z,64.60
2023-01-02T10:17:21.221Z,57.70
2023-01-02T10:20:25.411Z,50.80
2023-01-02T10:23:30.756Z,51.80
2023-01-02T10:26:36.053Z,50.60
2023-01-02T10:29:43.882Z,47.60
2023-01-02T10:33:11.925Z,44.20
2023-01-02T10:36:22.581Z,66.10
2023-01-02T10:39:26.200Z,65.20
2023-01-02T10:42:27.945Z,40.60
2023-01-02T10:45:29.824Z,41.00
2023-01-02T10:48:34.512Z,40.20
2023-01-02T10:51:38.182Z,37.30
2023-01-02T10:55:00.140Z,39.80
2023-01-02T10:58:12.499Z,36.00
2023-01-02T11:01:16.185Z,41.60
2023-01-02T11:04:29.740Z,38.00
2023-01-02T11:07:37.513Z,37.30
2023-01-02T11:10:39.116Z,32.50
2023-01-02T11:13:53.847Z,33.20
2023-01-02T11:17:03.692Z,32.40
2023-01-02T11:20:29.776Z,32.10
2023-01-02T11:23:36.921Z,35.40
2023-01-02T11:26:39.539Z,37.00
2023-01-02T11:29:46.147Z,38.30
2023-01-02T11:32:47.737Z,34.40
2023-01-02T11:35:52.597Z,31.90
2023-01-02T11:38:55.832Z,33.90
2023-01-02T11:42:04.941Z,35.90
2023-01-02T11:45:11.986Z,35.40
2023-01-02T11:48:21.434Z,40.40
2023-01-02T11:51:23.423Z,37.20
2023-01-02T11:54:41.599Z,38.30
2023-01-02T11:57:49.783Z,35.60
2023-01-02T12:00:54.930Z,38.40
2023-01-02T12:03:57.009Z,38.00
2023-01-02T12:07:34.297Z,37.90
2023-01-02T12:11:10.591Z,34.50
2023-01-02T12:14:20.406Z,37.90
2023-01-02T12:17:41.332Z,37.60
2023-01-02T12:20:55.588Z,39.60
2023-01-02T12:24:16.665Z,41.00
2023-01-02T12:27:42.831Z,38.90
2023-01-02T12:30:52.906Z,37.10
2023-01-02T12:34:07.596Z,35.70
2023-01-02T12:37:12.555Z,34.50
2023-01-02T12:40:35.876Z,37.60
2023-01-02T12:44:00.265Z,36.00
2023-01-02T12:47:08.202Z,32.60
2023-01-02T12:50:33.376Z,32.30
2023-01-02T12:53:41.815Z,36.20
2023-01-02T12:57:28.115Z,37.30
2023-01-02T13:00:35.820Z,33.20
2023-01-02T13:03:47.998Z,34.30
2023-01-02T13:07:04.010Z,31.70
2023-01-02T13:10:06.889Z,35.30
2023-01-02T13:13:10.116Z,34.90
2023-01-02T13:16:24.487Z,31.30
2023-01-02T13:19:44.417Z,33.10
2023-01-02T13:23:04.843Z,33.90
2023-01-02T13:26:10.933Z,34.10
2023-01-02T13:29:12.480Z,35.80
2023-01-02T13:32:14.717Z,35.80
2023-01-02T13:35:16.615Z,34.60
2023-01-02T13:38:18.805Z,38.70
2023-01-02T13:41:20.959Z,36.30
2023-01-02T13:44:32.694Z,36.70
2023-01-02T13:47:36.996Z,40.70
2023-01-02T13:50:39.037Z,35.50
2023-01-02T13:53:46.234Z,38.10
2023-01-02T13:57:25.925Z,36.60
2023-01-02T14:00:37.995Z,33.30
2023-01-02T14:03:39.745Z,36.50
2023-01-02T14:06:47.224Z,35.80
2023-01-02T14:10:09.667Z,37.20
2023-01-02T14:13:21.716Z,41.30
2023-01-02T14:16:23.223Z,38.40
2023-01-02T14:19:26.173Z,40.20
2023-01-02T14:22:27.833Z,42.60
2023-01-02T14:25:32.883Z,46.30
2023-01-02T14:28:38.972Z,51.30
2023-01-02T14:31:41.450Z,47.70
2023-01-02T14:34:46.409Z,55.70
2023-01-02T14:37:54.287Z,62.30
2023-01-02T14:40:56.087Z,61.70
2023-01-02T14:43:58.417Z,60.80
2023-01-02T14:47:02.399Z,58.40
2023-01-02T14:50:06.759Z,60.40
2023-01-02T14:53:19.527Z,65.50
2023-01-02T14:56:26.778Z,67.40
2023-01-02T14:59:31.239Z,70.10
2023-01-02T15:02:39.943Z,67.40
2023-01-02T15:05:45.839Z,68.10
2023-01-02T15:08:49.678Z,70.20
2023-01-02T15:11:56.510Z,79.70
2023-01-02T15:14:58.036Z,93.80
2023-01-02T15:21:13.588Z,90.40
2023-01-02T15:24:19.512Z,105.40
2023-01-02T15:27:27.646Z,119.80
2023-01-02T15:30:31.929Z,110.40
2023-01-02T15:33:34.354Z,108.20
2023-01-02T15:36:38.640Z,91.80
2023-01-02T15:39:43.111Z,96.90
2023-01-02T15:42:45.437Z,95.80
2023-01-02T15:45:49.111Z,96.30
2023-01-02T15:48:51.097Z,99.50
2023-01-02T15:51:53.253Z,113.50
2023-01-02T15:54:55.569Z,377.20
2023-01-02T15:57:57.541Z,156.80
2023-01-02T16:01:20.195Z,132.80
2023-01-02T16:04:27.808Z,175.60
2023-01-02T16:07:29.531Z,115.40
2023-01-02T16:13:36.436Z,131.20
2023-01-02T16:16:49.649Z,131.10
2023-01-02T16:19:58.836Z,102.80
2023-01-02T16:23:04.532Z,104.50
2023-01-02T16:26:06.641Z,97.20
2023-01-02T16:29:17.545Z,90.70
2023-01-02T16:32:32.966Z,90.20
2023-01-02T16:35:34.747Z,89.50
2023-01-02T16:38:54.177Z,125.90
2023-01-02T16:41:57.261Z,160.20
2023-01-02T16:44:58.991Z,75.90
2023-01-02T16:51:02.131Z,72.10
2023-01-02T16:57:12.015Z,77.00
2023-01-02T17:00:14.724Z,94.40
2023-01-02T17:03:22.189Z,142.70
2023-01-02T17:06:24.035Z,88.30
2023-01-02T17:12:27.235Z,103.70
2023-01-02T17:18:30.333Z,111.20
2023-01-02T17:21:33.118Z,78.50
2023-01-02T17:24:35.112Z,108.00
2023-01-02T17:27:36.774Z,145.30
2023-01-02T17:30:41.707Z,178.00
2023-01-02T17:33:43.410Z,137.80
2023-01-02T17:39:46.494Z,119.20
2023-01-02T17:42:48.489Z,170.10
2023-01-02T17:45:50.136Z,83.80
2023-01-02T17:51:53.346Z,80.80
2023-01-02T17:54:56.994Z,81.00
2023-01-02T17:57:58.775Z,85.90
2023-01-02T18:04:02.131Z,120.00
2023-01-02T18:07:03.678Z,82.30
2023-01-02T18:10:12.593Z,74.60
2023-01-02T18:13:16.358Z,80.00
2023-01-02T18:16:21.097Z,87.40
2023-01-02T18:19:28.032Z,103.40
2023-01-02T18:22:30.448Z,108.70
2023-01-02T18:25:32.034Z,109.10
2023-01-02T18:28:33.901Z,90.60
2023-01-02T18:34:52.417Z,54.10
2023-01-02T18:38:00.532Z,69.90
2023-01-02T18:41:27.345Z,73.70
2023-01-02T18:44:28.949Z,65.90
2023-01-02T18:47:39.687Z,79.40
2023-01-02T18:50:41.494Z,78.50
2023-01-02T18:53:51.652Z,90.00
2023-01-02T18:56:54.289Z,91.40
2023-01-02T19:00:01.947Z,113.80
2023-01-02T19:03:18.828Z,111.50
2023-01-02T19:06:23.430Z,150.00
2023-01-02T19:09:34.054Z,86.60
2023-01-02T19:12:41.089Z,76.50
2023-01-02T19:15:49.760Z,71.40
2023-01-02T19:18:53.887Z,83.80
2023-01-02T19:21:55.839Z,58.50
2023-01-02T19:25:05.251Z,60.00
2023-01-02T19:28:18.918Z,59.50
2023-01-02T19:31:20.657Z,62.50
2023-01-02T19:37:36.133Z,113.40
2023-01-02T19:40:37.902Z,165.80
2023-01-02T19:46:41.026Z,220.40
2023-01-02T19:49:42.816Z,251.10
2023-01-02T19:52:44.641Z,270.30
2023-01-02T19:58:47.698Z,263.20
2023-01-02T20:01:49.305Z,278.20
2023-01-02T20:07:53.173Z,243.80
2023-01-02T20:10:54.788Z,214.10
2023-01-02T20:16:58.044Z,204.20
2023-01-02T20:19:59.928Z,206.40
2023-01-02T20:23:01.508Z,204.60
2023-01-02T20:26:03.112Z,216.90
2023-01-02T20:32:06.574Z,216.90
2023-01-02T20:35:08.564Z,195.60
2023-01-02T20:38:10.208Z,194.00
2023-01-02T20:44:14.286Z,179.90
2023-01-02T20:47:17.186Z,176.30
2023-01-02T20:50:18.824Z,161.80
2023-01-02T20:56:22.215Z,167.80
2023-01-02T20:59:23.915Z,168.00
2023-01-02T21:02:28.708Z,163.70
2023-01-02T21:05:30.589Z,166.30
2023-01-02T21:11:34.117Z,153.70
2023-01-02T21:14:37.857Z,146.40
2023-01-02T21:17:39.622Z,148.40
2023-01-02T21:23:49.627Z,136.70
2023-01-02T21:26:51.244Z,127.30
2023-01-02T21:29:53.024Z,131.40
2023-01-02T21:32:54.677Z,146.80
2023-01-02T21:38:59.033Z,163.20
2023-01-02T21:45:02.385Z,151.90
2023-01-02T21:51:06.550Z,145.70
2023-01-02T21:54:08.179Z,153.60
2023-01-02T21:57:10.111Z,168.50
2023-01-02T22:00:16.918Z,150.60
2023-01-02T22:03:18.806Z,144.20
2023-01-02T22:06:20.549Z,172.60
2023-01-02T22:15:25.747Z,191.80
2023-01-02T22:18:27.314Z,164.40
2023-01-02T22:21:28.913Z,163.20
2023-01-02T22:24:30.843Z,150.50
2023-01-02T22:27:32.412Z,150.40
2023-01-02T22:33:37.272Z,158.00
2023-01-02T22:36:38.953Z,148.10
2023-01-02T22:43:00.298Z,133.20
2023-01-02T22:46:05.909Z,141.60
2023-01-02T22:49:12.649Z,144.00
2023-01-02T22:52:14.316Z,154.60
2023-01-02T22:58:19.431Z,163.50
2023-01-02T23:01:32.517Z,175.50
2023-01-02T23:04:34.423Z,173.20
2023-01-02T23:07:36.224Z,162.90
2023-01-02T23:13:39.564Z,139.70
2023-01-02T23:16:41.469Z,142.50
2023-01-02T23:19:43.123Z,155.60
2023-01-02T23:22:44.814Z,181.10
2023-01-02T23:35:11.528Z,138.50
2023-01-02T23:41:14.558Z,136.90
2023-01-02T23:44:16.910Z,123.60
2023-01-02T23:47:19.448Z,121.50
2023-01-02T23:50:21.287Z,120.70
2023-01-02T23:53:23.025Z,121.20
2023-01-02T23:56:31.769Z,120.60
2023-01-02T23:59:33.379Z,113.90
